sensor_id;sensor_type;location;lat;lon;timestamp;pressure;altitude;pressure_sealevel;temperature;humidity
30949;BME280;17637;51.984;21.208;2023-06-24T00:00:21;100341.81;;;18.56;62.19
30949;BME280;17637;51.984;21.208;2023-06-24T00:02:53;100323.69;;;18.45;61.57
30949;BME280;17637;51.984;21.208;2023-06-24T00:05:25;100340.97;;;18.56;61.76
30949;BME280;17637;51.984;21.208;2023-06-24T00:07:57;100343.13;;;18.68;61.52
30949;BME280;17637;51.984;21.208;2023-06-24T00:10:33;100324.53;;;18.62;61.41
30949;BME280;17637;51.984;21.208;2023-06-24T00:13:06;100332.94;;;18.65;61.63
30949;BME280;17637;51.984;21.208;2023-06-24T00:15:39;100334.06;;;18.55;61.57
30949;BME280;17637;51.984;21.208;2023-06-24T00:18:14;100325.53;;;18.52;61.75
30949;BME280;17637;51.984;21.208;2023-06-24T00:20:46;100334.06;;;18.55;61.42
30949;BME280;17637;51.984;21.208;2023-06-24T00:23:22;100340.47;;;18.52;61.42
30949;BME280;17637;51.984;21.208;2023-06-24T00:25:57;100335.50;;;18.41;61.76
30949;BME280;17637;51.984;21.208;2023-06-24T00:28:29;100337.84;;;18.52;61.00
30949;BME280;17637;51.984;21.208;2023-06-24T00:31:00;100359.53;;;18.38;61.34
30949;BME280;17637;51.984;21.208;2023-06-24T00:33:33;100348.19;;;18.37;61.27
30949;BME280;17637;51.984;21.208;2023-06-24T00:36:07;100352.44;;;18.38;61.54
30949;BME280;17637;51.984;21.208;2023-06-24T00:38:43;100338.94;;;18.33;61.53
30949;BME280;17637;51.984;21.208;2023-06-24T00:41:16;100370.75;;;18.56;61.21
30949;BME280;17637;51.984;21.208;2023-06-24T00:43:50;100381.41;;;18.55;61.60
30949;BME280;17637;51.984;21.208;2023-06-24T00:46:22;100350.31;;;18.33;61.31
30949;BME280;17637;51.984;21.208;2023-06-24T00:48:57;100374.31;;;18.39;61.90
30949;BME280;17637;51.984;21.208;2023-06-24T00:51:29;100377.75;;;18.39;61.97
30949;BME280;17637;51.984;21.208;2023-06-24T00:54:03;100380.09;;;18.50;61.77
30949;BME280;17637;51.984;21.208;2023-06-24T00:56:36;100377.97;;;18.54;61.22
30949;BME280;17637;51.984;21.208;2023-06-24T00:59:16;100372.03;;;18.52;61.67
30949;BME280;17637;51.984;21.208;2023-06-24T01:01:50;100368.59;;;18.51;61.29
30949;BME280;17637;51.984;21.208;2023-06-24T01:04:24;100328.09;;;18.19;61.44
30949;BME280;17637;51.984;21.208;2023-06-24T01:06:57;100397.75;;;18.66;61.33
30949;BME280;17637;51.984;21.208;2023-06-24T01:09:29;100382.94;;;18.65;63.71
30949;BME280;17637;51.984;21.208;2023-06-24T01:12:01;100368.59;;;18.60;62.03
30949;BME280;17637;51.984;21.208;2023-06-24T01:14:35;100379.63;;;18.63;62.05
30949;BME280;17637;51.984;21.208;2023-06-24T01:17:15;100384.06;;;18.71;62.63
30949;BME280;17637;51.984;21.208;2023-06-24T01:19:58;100396.44;;;18.71;61.49
30949;BME280;17637;51.984;21.208;2023-06-24T01:23:12;100390.84;;;18.82;62.13
30949;BME280;17637;51.984;21.208;2023-06-24T01:29:18;100399.06;;;18.79;61.30
30949;BME280;17637;51.984;21.208;2023-06-24T01:34:29;100398.56;;;18.59;62.09
30949;BME280;17637;51.984;21.208;2023-06-24T01:37:36;100403.44;;;18.45;62.69
30949;BME280;17637;51.984;21.208;2023-06-24T01:40:12;100366.59;;;18.37;62.53
30949;BME280;17637;51.984;21.208;2023-06-24T01:42:47;100388.97;;;18.41;62.74
30949;BME280;17637;51.984;21.208;2023-06-24T01:45:23;100398.00;;;18.39;62.78
30949;BME280;17637;51.984;21.208;2023-06-24T01:48:00;100376.91;;;18.22;62.83
30949;BME280;17637;51.984;21.208;2023-06-24T01:50:34;100388.41;;;18.21;62.85
30949;BME280;17637;51.984;21.208;2023-06-24T01:53:07;100370.63;;;18.15;63.33
30949;BME280;17637;51.984;21.208;2023-06-24T01:55:41;100397.97;;;18.30;63.13
30949;BME280;17637;51.984;21.208;2023-06-24T01:58:17;100353.84;;;18.08;63.27
30949;BME280;17637;51.984;21.208;2023-06-24T02:00:50;100396.00;;;18.32;63.49
30949;BME280;17637;51.984;21.208;2023-06-24T02:03:23;100377.53;;;18.16;63.30
30949;BME280;17637;51.984;21.208;2023-06-24T02:05:57;100345.13;;;17.99;63.10
30949;BME280;17637;51.984;21.208;2023-06-24T02:08:31;100381.03;;;18.25;63.32
30949;BME280;17637;51.984;21.208;2023-06-24T02:11:05;100400.78;;;18.37;63.20
30949;BME280;17637;51.984;21.208;2023-06-24T02:13:39;100388.72;;;18.18;63.83
30949;BME280;17637;51.984;21.208;2023-06-24T02:16:14;100397.94;;;18.14;63.89
30949;BME280;17637;51.984;21.208;2023-06-24T02:18:48;100404.69;;;18.16;64.10
30949;BME280;17637;51.984;21.208;2023-06-24T02:21:21;100390.56;;;17.91;64.33
30949;BME280;17637;51.984;21.208;2023-06-24T02:23:55;100427.84;;;18.13;64.27
30949;BME280;17637;51.984;21.208;2023-06-24T02:26:28;100420.59;;;18.15;64.72
30949;BME280;17637;51.984;21.208;2023-06-24T02:29:00;100393.19;;;17.91;64.64
30949;BME280;17637;51.984;21.208;2023-06-24T02:31:32;100430.28;;;18.14;65.07
30949;BME280;17637;51.984;21.208;2023-06-24T02:34:04;100447.66;;;18.07;64.85
30949;BME280;17637;51.984;21.208;2023-06-24T02:36:36;100446.97;;;17.97;65.63
30949;BME280;17637;51.984;21.208;2023-06-24T02:39:08;100432.53;;;18.01;64.81
30949;BME280;17637;51.984;21.208;2023-06-24T02:41:40;100445.66;;;18.01;65.36
30949;BME280;17637;51.984;21.208;2023-06-24T02:44:12;100420.06;;;17.77;65.18
30949;BME280;17637;51.984;21.208;2023-06-24T02:46:44;100447.47;;;18.00;65.11
30949;BME280;17637;51.984;21.208;2023-06-24T02:49:18;100441.28;;;18.10;64.38
30949;BME280;17637;51.984;21.208;2023-06-24T02:51:50;100462.53;;;18.16;64.44
30949;BME280;17637;51.984;21.208;2023-06-24T02:54:22;100459.06;;;18.16;64.52
30949;BME280;17637;51.984;21.208;2023-06-24T02:56:55;100463.97;;;18.11;64.67
30949;BME280;17637;51.984;21.208;2023-06-24T02:59:32;100449.88;;;18.20;64.87
30949;BME280;17637;51.984;21.208;2023-06-24T03:02:04;100451.72;;;18.28;64.18
30949;BME280;17637;51.984;21.208;2023-06-24T03:04:37;100440.66;;;18.16;64.03
30949;BME280;17637;51.984;21.208;2023-06-24T03:07:10;100441.63;;;18.15;64.37
30949;BME280;17637;51.984;21.208;2023-06-24T03:09:42;100464.81;;;18.11;64.38
30949;BME280;17637;51.984;21.208;2023-06-24T03:12:14;100416.25;;;17.97;63.93
30949;BME280;17637;51.984;21.208;2023-06-24T03:14:46;100445.91;;;18.16;63.92
30949;BME280;17637;51.984;21.208;2023-06-24T03:17:18;100461.56;;;18.26;63.78
30949;BME280;17637;51.984;21.208;2023-06-24T03:19:50;100404.25;;;17.95;63.73
30949;BME280;17637;51.984;21.208;2023-06-24T03:22:22;100456.13;;;18.19;63.70
30949;BME280;17637;51.984;21.208;2023-06-24T03:24:54;100472.28;;;18.32;63.95
30949;BME280;17637;51.984;21.208;2023-06-24T03:27:25;100450.81;;;18.11;64.16
30949;BME280;17637;51.984;21.208;2023-06-24T03:29:57;100462.09;;;18.29;63.66
30949;BME280;17637;51.984;21.208;2023-06-24T03:32:29;100477.09;;;18.45;63.66
30949;BME280;17637;51.984;21.208;2023-06-24T03:35:01;100429.13;;;18.09;64.08
30949;BME280;17637;51.984;21.208;2023-06-24T03:37:33;100446.16;;;18.31;63.91
30949;BME280;17637;51.984;21.208;2023-06-24T03:40:05;100475.34;;;18.54;63.44
30949;BME280;17637;51.984;21.208;2023-06-24T03:42:37;100479.63;;;18.55;63.72
30949;BME280;17637;51.984;21.208;2023-06-24T03:45:09;100484.25;;;18.61;63.02
30949;BME280;17637;51.984;21.208;2023-06-24T03:47:41;100475.50;;;18.52;63.11
30949;BME280;17637;51.984;21.208;2023-06-24T03:50:13;100469.03;;;18.39;62.93
30949;BME280;17637;51.984;21.208;2023-06-24T03:52:45;100481.41;;;18.55;62.88
30949;BME280;17637;51.984;21.208;2023-06-24T03:55:17;100466.56;;;18.45;63.02
30949;BME280;17637;51.984;21.208;2023-06-24T03:57:48;100438.44;;;18.38;63.05
30949;BME280;17637;51.984;21.208;2023-06-24T04:00:20;100470.59;;;18.66;62.44
30949;BME280;17637;51.984;21.208;2023-06-24T04:02:52;100474.88;;;18.67;62.23
30949;BME280;17637;51.984;21.208;2023-06-24T04:05:25;100457.63;;;18.89;61.72
30949;BME280;17637;51.984;21.208;2023-06-24T04:07:56;100481.34;;;18.89;62.26
30949;BME280;17637;51.984;21.208;2023-06-24T04:10:28;100465.94;;;19.11;61.93
30949;BME280;17637;51.984;21.208;2023-06-24T04:13:00;100443.13;;;18.60;62.44
30949;BME280;17637;51.984;21.208;2023-06-24T04:15:32;100461.31;;;19.05;62.19
30949;BME280;17637;51.984;21.208;2023-06-24T04:18:04;100454.91;;;19.24;61.47
30949;BME280;17637;51.984;21.208;2023-06-24T04:20:36;100488.69;;;19.45;61.20
30949;BME280;17637;51.984;21.208;2023-06-24T04:23:08;100442.56;;;19.32;61.15
30949;BME280;17637;51.984;21.208;2023-06-24T04:25:42;100465.63;;;19.39;61.47
30949;BME280;17637;51.984;21.208;2023-06-24T04:28:14;100484.06;;;19.39;61.70
30949;BME280;17637;51.984;21.208;2023-06-24T04:30:46;100485.53;;;19.49;61.68
30949;BME280;17637;51.984;21.208;2023-06-24T04:33:17;100478.44;;;19.25;62.72
30949;BME280;17637;51.984;21.208;2023-06-24T04:35:49;100494.28;;;19.50;62.10
30949;BME280;17637;51.984;21.208;2023-06-24T04:38:22;100498.72;;;19.41;62.24
30949;BME280;17637;51.984;21.208;2023-06-24T04:40:54;100474.00;;;19.26;62.63
30949;BME280;17637;51.984;21.208;2023-06-24T04:43:27;100479.94;;;19.20;63.39
30949;BME280;17637;51.984;21.208;2023-06-24T04:45:59;100492.78;;;19.31;63.45
30949;BME280;17637;51.984;21.208;2023-06-24T04:48:31;100505.78;;;19.24;63.66
30949;BME280;17637;51.984;21.208;2023-06-24T04:51:03;100511.72;;;19.51;62.71
30949;BME280;17637;51.984;21.208;2023-06-24T04:53:35;100494.09;;;19.35;62.73
30949;BME280;17637;51.984;21.208;2023-06-24T04:56:06;100501.84;;;19.45;62.75
30949;BME280;17637;51.984;21.208;2023-06-24T04:58:38;100502.00;;;19.27;62.74
30949;BME280;17637;51.984;21.208;2023-06-24T05:01:10;100486.03;;;19.28;62.02
30949;BME280;17637;51.984;21.208;2023-06-24T05:03:42;100490.31;;;19.38;62.63
30949;BME280;17637;51.984;21.208;2023-06-24T05:06:14;100509.94;;;19.43;62.54
30949;BME280;17637;51.984;21.208;2023-06-24T05:08:45;100503.16;;;19.41;62.81
30949;BME280;17637;51.984;21.208;2023-06-24T05:11:17;100510.06;;;19.33;62.47
30949;BME280;17637;51.984;21.208;2023-06-24T05:13:49;100501.53;;;19.40;62.40
30949;BME280;17637;51.984;21.208;2023-06-24T05:16:21;100510.59;;;19.54;62.12
30949;BME280;17637;51.984;21.208;2023-06-24T05:18:53;100516.19;;;19.59;62.45
30949;BME280;17637;51.984;21.208;2023-06-24T05:21:25;100508.09;;;19.52;61.59
30949;BME280;17637;51.984;21.208;2023-06-24T05:23:57;100524.75;;;19.53;62.38
30949;BME280;17637;51.984;21.208;2023-06-24T05:26:29;100481.72;;;19.35;61.66
30949;BME280;17637;51.984;21.208;2023-06-24T05:29:00;100525.41;;;19.88;61.67
30949;BME280;17637;51.984;21.208;2023-06-24T05:31:32;100536.78;;;19.88;61.47
30949;BME280;17637;51.984;21.208;2023-06-24T05:34:04;100501.16;;;19.76;61.43
30949;BME280;17637;51.984;21.208;2023-06-24T05:36:36;100535.28;;;19.94;61.58
30949;BME280;17637;51.984;21.208;2023-06-24T05:39:08;100544.50;;;20.06;61.48
30949;BME280;17637;51.984;21.208;2023-06-24T05:41:41;100540.72;;;20.09;61.55
30949;BME280;17637;51.984;21.208;2023-06-24T05:44:13;100553.72;;;20.02;60.97
30949;BME280;17637;51.984;21.208;2023-06-24T05:46:45;100546.72;;;20.34;60.44
30949;BME280;17637;51.984;21.208;2023-06-24T05:49:17;100546.25;;;20.30;60.83
30949;BME280;17637;51.984;21.208;2023-06-24T05:51:49;100508.84;;;20.19;60.44
30949;BME280;17637;51.984;21.208;2023-06-24T05:54:20;100541.13;;;20.29;59.55
30949;BME280;17637;51.984;21.208;2023-06-24T05:56:52;100552.22;;;20.24;60.15
30949;BME280;17637;51.984;21.208;2023-06-24T05:59:24;100542.97;;;20.20;60.15
30949;BME280;17637;51.984;21.208;2023-06-24T06:01:56;100541.06;;;20.54;59.00
30949;BME280;17637;51.984;21.208;2023-06-24T06:04:28;100564.03;;;20.45;58.93
30949;BME280;17637;51.984;21.208;2023-06-24T06:07:00;100565.50;;;20.47;58.33
30949;BME280;17637;51.984;21.208;2023-06-24T06:09:32;100555.06;;;20.54;58.73
30949;BME280;17637;51.984;21.208;2023-06-24T06:12:04;100549.53;;;20.32;58.01
30949;BME280;17637;51.984;21.208;2023-06-24T06:14:36;100508.16;;;20.25;58.10
30949;BME280;17637;51.984;21.208;2023-06-24T06:17:08;100580.22;;;20.90;57.11
30949;BME280;17637;51.984;21.208;2023-06-24T06:19:40;100587.69;;;20.78;57.20
30949;BME280;17637;51.984;21.208;2023-06-24T06:22:13;100575.81;;;20.65;58.13
30949;BME280;17637;51.984;21.208;2023-06-24T06:24:47;100574.59;;;21.16;56.93
30949;BME280;17637;51.984;21.208;2023-06-24T06:27:18;100561.34;;;21.24;56.92
30949;BME280;17637;51.984;21.208;2023-06-24T06:29:50;100576.56;;;21.45;56.88
30949;BME280;17637;51.984;21.208;2023-06-24T06:32:22;100563.00;;;20.94;56.90
30949;BME280;17637;51.984;21.208;2023-06-24T06:34:54;100572.38;;;21.59;57.38
30949;BME280;17637;51.984;21.208;2023-06-24T06:37:26;100546.75;;;21.60;56.21
30949;BME280;17637;51.984;21.208;2023-06-24T06:39:58;100533.16;;;21.40;55.89
30949;BME280;17637;51.984;21.208;2023-06-24T06:42:30;100543.78;;;21.31;56.24
30949;BME280;17637;51.984;21.208;2023-06-24T06:45:02;100550.22;;;21.60;54.97
30949;BME280;17637;51.984;21.208;2023-06-24T06:47:34;100548.91;;;21.94;55.43
30949;BME280;17637;51.984;21.208;2023-06-24T06:50:06;100541.00;;;21.56;55.87
30949;BME280;17637;51.984;21.208;2023-06-24T06:52:39;100552.81;;;21.84;54.92
30949;BME280;17637;51.984;21.208;2023-06-24T06:55:11;100563.38;;;22.22;54.87
30949;BME280;17637;51.984;21.208;2023-06-24T06:57:43;100559.63;;;22.01;55.31
30949;BME280;17637;51.984;21.208;2023-06-24T07:00:15;100537.81;;;22.14;53.94
30949;BME280;17637;51.984;21.208;2023-06-24T07:02:46;100560.75;;;22.52;53.54
30949;BME280;17637;51.984;21.208;2023-06-24T07:05:18;100547.78;;;22.42;54.27
30949;BME280;17637;51.984;21.208;2023-06-24T07:07:50;100569.69;;;22.66;53.42
30949;BME280;17637;51.984;21.208;2023-06-24T07:10:22;100549.94;;;22.83;53.86
30949;BME280;17637;51.984;21.208;2023-06-24T07:12:54;100543.75;;;22.61;54.25
30949;BME280;17637;51.984;21.208;2023-06-24T07:15:29;100544.00;;;22.81;53.31
30949;BME280;17637;51.984;21.208;2023-06-24T07:18:01;100563.91;;;23.14;52.99
30949;BME280;17637;51.984;21.208;2023-06-24T07:20:33;100559.97;;;23.24;51.55
30949;BME280;17637;51.984;21.208;2023-06-24T07:23:05;100548.78;;;22.56;52.79
30949;BME280;17637;51.984;21.208;2023-06-24T07:25:37;100541.81;;;23.06;52.29
30949;BME280;17637;51.984;21.208;2023-06-24T07:28:09;100549.66;;;23.58;51.68
30949;BME280;17637;51.984;21.208;2023-06-24T07:30:43;100548.81;;;22.92;52.27
30949;BME280;17637;51.984;21.208;2023-06-24T07:33:15;100545.22;;;23.15;51.93
30949;BME280;17637;51.984;21.208;2023-06-24T07:35:47;100556.88;;;23.06;51.91
30949;BME280;17637;51.984;21.208;2023-06-24T07:38:19;100559.28;;;23.37;51.71
30949;BME280;17637;51.984;21.208;2023-06-24T07:40:51;100548.84;;;23.14;51.02
30949;BME280;17637;51.984;21.208;2023-06-24T07:43:23;100565.50;;;23.95;49.95
30949;BME280;17637;51.984;21.208;2023-06-24T07:45:55;100559.78;;;23.48;51.77
30949;BME280;17637;51.984;21.208;2023-06-24T07:48:26;100545.28;;;23.22;50.21
30949;BME280;17637;51.984;21.208;2023-06-24T07:50:58;100583.44;;;23.49;51.10
30949;BME280;17637;51.984;21.208;2023-06-24T07:53:30;100572.13;;;23.19;49.92
30949;BME280;17637;51.984;21.208;2023-06-24T07:56:02;100562.19;;;23.21;50.35
30949;BME280;17637;51.984;21.208;2023-06-24T07:58:35;100582.44;;;23.72;50.79
30949;BME280;17637;51.984;21.208;2023-06-24T08:01:09;100543.09;;;24.04;48.86
30949;BME280;17637;51.984;21.208;2023-06-24T08:03:41;100586.72;;;23.73;49.45
30949;BME280;17637;51.984;21.208;2023-06-24T08:06:13;100559.09;;;23.89;49.93
30949;BME280;17637;51.984;21.208;2023-06-24T08:08:45;100564.81;;;24.14;49.50
30949;BME280;17637;51.984;21.208;2023-06-24T08:11:18;100584.59;;;24.12;48.13
30949;BME280;17637;51.984;21.208;2023-06-24T08:13:50;100570.41;;;23.98;48.60
30949;BME280;17637;51.984;21.208;2023-06-24T08:16:21;100572.13;;;24.12;47.61
30949;BME280;17637;51.984;21.208;2023-06-24T08:18:53;100538.63;;;24.11;47.91
30949;BME280;17637;51.984;21.208;2023-06-24T08:21:25;100561.09;;;24.44;47.86
30949;BME280;17637;51.984;21.208;2023-06-24T08:23:57;100585.03;;;24.57;48.37
30949;BME280;17637;51.984;21.208;2023-06-24T08:26:29;100557.19;;;24.39;47.78
30949;BME280;17637;51.984;21.208;2023-06-24T08:29:01;100567.59;;;24.83;45.76
30949;BME280;17637;51.984;21.208;2023-06-24T08:31:35;100595.00;;;24.77;45.61
30949;BME280;17637;51.984;21.208;2023-06-24T08:34:07;100602.72;;;24.08;46.89
30949;BME280;17637;51.984;21.208;2023-06-24T08:36:39;100609.69;;;24.09;47.39
30949;BME280;17637;51.984;21.208;2023-06-24T08:39:10;100601.28;;;23.84;47.56
30949;BME280;17637;51.984;21.208;2023-06-24T08:41:47;100590.91;;;23.39;48.08
30949;BME280;17637;51.984;21.208;2023-06-24T08:44:19;100582.88;;;23.75;47.32
30949;BME280;17637;51.984;21.208;2023-06-24T08:46:51;100591.69;;;24.04;46.65
30949;BME280;17637;51.984;21.208;2023-06-24T08:52:12;100579.28;;;24.47;45.27
30949;BME280;17637;51.984;21.208;2023-06-24T08:54:50;100606.38;;;24.35;45.83
30949;BME280;17637;51.984;21.208;2023-06-24T08:57:23;100565.53;;;23.51;47.85
30949;BME280;17637;51.984;21.208;2023-06-24T08:59:55;100589.25;;;23.59;47.87
30949;BME280;17637;51.984;21.208;2023-06-24T09:02:29;100573.44;;;23.45;47.67
30949;BME280;17637;51.984;21.208;2023-06-24T09:05:01;100563.25;;;23.26;47.04
30949;BME280;17637;51.984;21.208;2023-06-24T09:07:36;100592.41;;;23.91;47.79
30949;BME280;17637;51.984;21.208;2023-06-24T09:10:08;100603.84;;;23.92;47.08
30949;BME280;17637;51.984;21.208;2023-06-24T09:12:40;100602.09;;;24.06;46.98
30949;BME280;17637;51.984;21.208;2023-06-24T09:15:14;100604.78;;;23.84;47.44
30949;BME280;17637;51.984;21.208;2023-06-24T09:17:47;100591.16;;;23.66;47.76
30949;BME280;17637;51.984;21.208;2023-06-24T09:20:19;100585.53;;;23.32;47.68
30949;BME280;17637;51.984;21.208;2023-06-24T09:22:58;100593.03;;;23.29;48.53
30949;BME280;17637;51.984;21.208;2023-06-24T09:25:31;100611.78;;;23.27;48.84
30949;BME280;17637;51.984;21.208;2023-06-24T09:28:04;100603.75;;;23.85;48.14
30949;BME280;17637;51.984;21.208;2023-06-24T09:30:35;100600.31;;;24.13;48.23
30949;BME280;17637;51.984;21.208;2023-06-24T09:33:13;100610.22;;;23.76;47.40
30949;BME280;17637;51.984;21.208;2023-06-24T09:35:49;100596.91;;;23.91;47.40
30949;BME280;17637;51.984;21.208;2023-06-24T09:38:32;100606.50;;;24.20;47.87
30949;BME280;17637;51.984;21.208;2023-06-24T09:41:05;100595.38;;;23.82;45.84
30949;BME280;17637;51.984;21.208;2023-06-24T09:43:44;100597.00;;;23.83;46.35
30949;BME280;17637;51.984;21.208;2023-06-24T09:46:16;100596.06;;;23.90;46.35
30949;BME280;17637;51.984;21.208;2023-06-24T09:48:49;100595.31;;;23.97;45.81
30949;BME280;17637;51.984;21.208;2023-06-24T09:51:22;100589.56;;;23.93;44.99
30949;BME280;17637;51.984;21.208;2023-06-24T09:53:57;100613.94;;;23.82;44.04
30949;BME280;17637;51.984;21.208;2023-06-24T09:56:29;100579.34;;;23.68;44.43
30949;BME280;17637;51.984;21.208;2023-06-24T09:59:01;100564.09;;;23.77;43.88
30949;BME280;17637;51.984;21.208;2023-06-24T10:01:38;100616.53;;;23.97;42.13
30949;BME280;17637;51.984;21.208;2023-06-24T10:04:15;100610.59;;;23.73;41.10
30949;BME280;17637;51.984;21.208;2023-06-24T10:06:47;100591.59;;;23.48;41.22
30949;BME280;17637;51.984;21.208;2023-06-24T10:09:20;100600.00;;;23.30;41.80
30949;BME280;17637;51.984;21.208;2023-06-24T10:11:51;100599.03;;;23.16;41.34
30949;BME280;17637;51.984;21.208;2023-06-24T10:14:23;100614.31;;;23.35;41.60
30949;BME280;17637;51.984;21.208;2023-06-24T10:17:05;100605.88;;;23.47;42.33
30949;BME280;17637;51.984;21.208;2023-06-24T10:19:41;100584.28;;;23.50;41.58
30949;BME280;17637;51.984;21.208;2023-06-24T10:22:13;100587.53;;;23.73;41.78
30949;BME280;17637;51.984;21.208;2023-06-24T10:24:46;100620.97;;;23.46;42.61
30949;BME280;17637;51.984;21.208;2023-06-24T10:27:20;100616.13;;;23.50;42.03
30949;BME280;17637;51.984;21.208;2023-06-24T10:30:02;100625.38;;;23.61;42.05
30949;BME280;17637;51.984;21.208;2023-06-24T10:32:40;100623.72;;;23.38;41.81
30949;BME280;17637;51.984;21.208;2023-06-24T10:35:26;100618.50;;;23.23;43.44
30949;BME280;17637;51.984;21.208;2023-06-24T10:38:01;100620.06;;;23.39;43.75
30949;BME280;17637;51.984;21.208;2023-06-24T10:40:37;100626.84;;;23.63;43.61
30949;BME280;17637;51.984;21.208;2023-06-24T10:43:28;100628.84;;;23.39;44.15
30949;BME280;17637;51.984;21.208;2023-06-24T10:46:01;100619.94;;;23.25;43.37
30949;BME280;17637;51.984;21.208;2023-06-24T10:48:32;100609.84;;;23.36;43.53
30949;BME280;17637;51.984;21.208;2023-06-24T10:51:04;100630.88;;;23.37;43.92
30949;BME280;17637;51.984;21.208;2023-06-24T10:53:36;100588.75;;;23.27;44.33
30949;BME280;17637;51.984;21.208;2023-06-24T10:56:08;100630.56;;;23.47;42.87
30949;BME280;17637;51.984;21.208;2023-06-24T10:58:40;100625.13;;;23.55;43.41
30949;BME280;17637;51.984;21.208;2023-06-24T11:01:13;100587.63;;;22.85;43.05
30949;BME280;17637;51.984;21.208;2023-06-24T11:03:47;100610.28;;;22.88;43.35
30949;BME280;17637;51.984;21.208;2023-06-24T11:06:18;100623.97;;;23.06;43.21
30949;BME280;17637;51.984;21.208;2023-06-24T11:08:50;100628.19;;;23.16;44.02
30949;BME280;17637;51.984;21.208;2023-06-24T11:11:22;100635.19;;;23.08;44.20
30949;BME280;17637;51.984;21.208;2023-06-24T11:13:54;100595.72;;;22.47;44.50
30949;BME280;17637;51.984;21.208;2023-06-24T11:16:27;100618.22;;;22.88;46.52
30949;BME280;17637;51.984;21.208;2023-06-24T11:19:01;100619.53;;;22.92;46.72
30949;BME280;17637;51.984;21.208;2023-06-24T11:21:32;100651.38;;;23.29;46.86
30949;BME280;17637;51.984;21.208;2023-06-24T11:24:05;100640.63;;;23.15;47.13
30949;BME280;17637;51.984;21.208;2023-06-24T11:26:38;100633.06;;;22.82;49.30
30949;BME280;17637;51.984;21.208;2023-06-24T11:29:13;100627.69;;;22.75;50.82
30949;BME280;17637;51.984;21.208;2023-06-24T11:31:45;100621.66;;;22.67;50.95
30949;BME280;17637;51.984;21.208;2023-06-24T11:34:17;100646.66;;;22.94;53.48
30949;BME280;17637;51.984;21.208;2023-06-24T11:36:49;100593.50;;;22.66;52.13
30949;BME280;17637;51.984;21.208;2023-06-24T11:39:27;100612.69;;;22.68;53.02
30949;BME280;17637;51.984;21.208;2023-06-24T11:41:59;100635.44;;;22.77;53.88
30949;BME280;17637;51.984;21.208;2023-06-24T11:44:31;100641.53;;;22.92;52.64
30949;BME280;17637;51.984;21.208;2023-06-24T11:47:07;100646.19;;;22.90;53.07
30949;BME280;17637;51.984;21.208;2023-06-24T11:49:52;100634.44;;;22.78;51.65
30949;BME280;17637;51.984;21.208;2023-06-24T11:52:47;100642.13;;;23.09;53.98
30949;BME280;17637;51.984;21.208;2023-06-24T11:55:25;100647.91;;;23.13;51.69
30949;BME280;17637;51.984;21.208;2023-06-24T11:57:59;100603.09;;;22.52;53.11
30949;BME280;17637;51.984;21.208;2023-06-24T12:00:38;100639.69;;;22.93;51.89
30949;BME280;17637;51.984;21.208;2023-06-24T12:03:10;100615.34;;;22.68;50.82
30949;BME280;17637;51.984;21.208;2023-06-24T12:05:47;100642.44;;;23.00;50.13
30949;BME280;17637;51.984;21.208;2023-06-24T12:08:18;100622.34;;;22.90;50.78
30949;BME280;17637;51.984;21.208;2023-06-24T12:10:51;100643.66;;;22.82;50.31
30949;BME280;17637;51.984;21.208;2023-06-24T12:13:23;100639.28;;;22.74;49.12
30949;BME280;17637;51.984;21.208;2023-06-24T12:15:55;100623.00;;;22.77;50.17
30949;BME280;17637;51.984;21.208;2023-06-24T12:18:27;100602.56;;;22.56;49.81
30949;BME280;17637;51.984;21.208;2023-06-24T12:20:59;100645.28;;;22.53;49.58
30949;BME280;17637;51.984;21.208;2023-06-24T12:23:31;100638.72;;;22.49;48.50
30949;BME280;17637;51.984;21.208;2023-06-24T12:26:02;100621.50;;;22.30;48.28
30949;BME280;17637;51.984;21.208;2023-06-24T12:28:37;100618.09;;;22.21;48.68
30949;BME280;17637;51.984;21.208;2023-06-24T12:31:09;100643.91;;;22.42;48.43
30949;BME280;17637;51.984;21.208;2023-06-24T12:33:41;100638.22;;;22.31;49.28
30949;BME280;17637;51.984;21.208;2023-06-24T12:36:13;100647.78;;;22.55;48.04
30949;BME280;17637;51.984;21.208;2023-06-24T12:38:44;100631.16;;;22.46;48.34
30949;BME280;17637;51.984;21.208;2023-06-24T12:41:16;100644.56;;;22.44;48.57
30949;BME280;17637;51.984;21.208;2023-06-24T12:43:48;100639.41;;;22.28;48.79
30949;BME280;17637;51.984;21.208;2023-06-24T12:46:20;100641.28;;;22.42;47.99
30949;BME280;17637;51.984;21.208;2023-06-24T12:48:52;100624.16;;;22.30;48.58
30949;BME280;17637;51.984;21.208;2023-06-24T12:51:24;100644.84;;;22.50;48.78
30949;BME280;17637;51.984;21.208;2023-06-24T12:53:56;100643.47;;;22.54;48.64
30949;BME280;17637;51.984;21.208;2023-06-24T12:56:27;100654.13;;;22.90;48.55
30949;BME280;17637;51.984;21.208;2023-06-24T12:58:59;100646.03;;;22.77;49.09
30949;BME280;17637;51.984;21.208;2023-06-24T13:01:31;100639.72;;;22.48;47.30
30949;BME280;17637;51.984;21.208;2023-06-24T13:04:04;100654.38;;;22.36;46.88
30949;BME280;17637;51.984;21.208;2023-06-24T13:06:36;100646.84;;;22.48;47.07
30949;BME280;17637;51.984;21.208;2023-06-24T13:09:07;100650.69;;;22.60;46.80
30949;BME280;17637;51.984;21.208;2023-06-24T13:11:39;100632.09;;;22.30;48.83
30949;BME280;17637;51.984;21.208;2023-06-24T13:14:13;100667.59;;;22.59;49.16
30949;BME280;17637;51.984;21.208;2023-06-24T13:16:44;100676.72;;;22.86;50.03
30949;BME280;17637;51.984;21.208;2023-06-24T13:19:16;100653.84;;;22.40;48.96